Harrison, West Virginia
Current Conditions -  °F | °C
As of 5:54 PM on Friday 28 Nov 2014 (Local Time) from KCRW Reporting Station
Broken Clouds Broken Clouds  
Wind Chill: -1°   Ceiling: 18000
Heat Index: -1°   Visibility: 10mi
Dew Point: -7°   Wind: 0mph
Humidity: 66%   Direction: NA
Pressure: 30.26"   Gusts: NA
Location:  38.5676°N, 80.9762°W
Report Text: KCRW 282254Z 00000KT 10SM SCT110 BKN180 M01/M07 A3026 RMK AO2 SLP257 BKN V SCT T10111067
Loading
Personal Weather Stations






























Interactive Weather Map New forecast layout! Learn more

10-Day Weather Forecast

Advertisements
Track Severe Weather on mobile